Observations for MANCHESTER INTL, United Kingdom (EGCC)

EGCC 191950Z AUTO 35006KT 9999 BKN049 10/06 Q1003 NOSIG 
EGCC 191920Z AUTO 01007KT 9999 NCD 10/07 Q1003 NOSIG
EGCC 191850Z AUTO 33007KT 9999 FEW040 10/08 Q1003 NOSIG 
EGCC 191820Z AUTO 27003KT 9999 BKN037 10/09 Q1002 NOSIG 
EGCC 191750Z AUTO 27004KT 9999 NCD 10/08 Q1002 NOSIG
EGCC 191720Z AUTO 26004KT 9999 BKN039 10/08 Q1001 NOSIG 
EGCC 191650Z AUTO 29006KT 9999 BKN036 11/08 Q1001 NOSIG 
EGCC 191620Z AUTO 29004KT 9999 BKN039 11/08 Q1000 NOSIG 
EGCC 191550Z 27007KT 9999 VCSH SCT043 11/09 Q1000 NOSIG 
EGCC 191520Z 26006KT 9999 FEW017 SCT042 12/09 Q1000 NOSIG   
EGCC 191450Z 25005KT 9999 FEW018TCU BKN049 12/09 Q0999 NOSIG
EGCC 191420Z 26006KT 9999 FEW019 BKN044 12/08 Q0999 NOSIG   
EGCC 191350Z AUTO 25008KT 9999 SCT016 BKN029 12/09 Q0999 NOSIG  
EGCC 191320Z AUTO 24007KT 9999 FEW015 SCT046 12/09 Q0998 NOSIG  
EGCC 191250Z AUTO 27007KT 9999 FEW012 SCT044 11/09 Q0998 NOSIG  
EGCC 191220Z 28006KT 9999 SCT013 SCT020 11/08 Q0998 NOSIG   
EGCC 191220Z 27005KT 9999 SCT013 SCT040 11/08 Q0998 NOSIG
EGCC 191150Z AUTO 26006KT 9999 SCT014 SCT019 BKN025 11/09 Q0998 NOSIG   
EGCC 191120Z 26008KT 9999 SCT014 12/09 Q0998 NOSIG  
EGCC 191050Z 25006KT 9999 FEW011 11/09 Q0998 NOSIG  
EGCC 191020Z 28004KT 240V310 9999 FEW007 10/08 Q0998 NOSIG  
EGCC 190950Z VRB03KT 9999 SCT005 09/08 Q0997 TEMPO BKN005   
EGCC 190920Z 31005KT 270V330 9999 BKN006 09/08 Q0997 BECMG FEW007 BKN012
EGCC 190850Z 27006KT 240V300 9999 BKN005 09/08 Q0997 BECMG FEW006 BKN010
EGCC 190820Z 25004KT 9999 BKN005 09/08 Q0997 BECMG FEW007 SCT030
EGCC 190750Z VRB03KT 9999 FEW004 SCT048 08/08 Q0996 NOSIG   
EGCC 190720Z 24004KT 9999 FEW004 SCT017 08/08 Q0996 NOSIG   
EGCC 190650Z 23004KT 9999 SCT005 BKN016 08/07 Q0995 NOSIG   
EGCC 190620Z 23004KT 190V260 9999 -RADZ BKN006 08/07 Q0995 TEMPO SHRA   
EGCC 190620Z AUTO VRB03KT 9999 BKN004 OVC013 08/07 Q0995
EGCC 190550Z 21004KT 8000 -RADZ FEW007 BKN013 08/07 Q0995 RERA REDZ TEMPO SHRA  
EGCC 190520Z AUTO 21004KT 170V240 9999 OVC012 09/07 Q0995 TEMPO SHRA
EGCC 190450Z AUTO 19004KT 9999 OVC016 09/07 Q0994 TEMPO SHRA
EGCC 190420Z AUTO 19005KT 170V230 9999 BKN017 BKN021 OVC033 09/07 Q0994 RERA TEMPO SHRA 
EGCC 190350Z AUTO 19005KT 9999 -RA BKN018 OVC044 09/07 Q0994 TEMPO SHRA BKN012  
EGCC 190320Z AUTO 19004KT 160V220 9999 FEW027 SCT033 BKN039 08/07 Q0994 TEMPO SHRA  
EGCC 190250Z AUTO 19006KT 150V220 9999 SCT031 SCT041 BKN049 08/07 Q0994 TEMPO SHRA BKN012   
EGCC 190220Z AUTO 20005KT 160V240 9999 FEW028 BKN033 OVC041 09/07 Q0994 NOSIG   
EGCC 190150Z AUTO 19006KT 9999 FEW023 BKN028 09/07 Q0994 NOSIG  
EGCC 190120Z AUTO 19006KT 9999 BKN033 09/07 Q0994 NOSIG 
EGCC 190050Z AUTO 20006KT 130V230 9999 BKN040/// BKN049/// //////TCU 09/08 Q0994 NOSIG  
EGCC 190020Z AUTO 19005KT 150V230 9999 -RA FEW022/// SCT033/// BKN042/// //////TCU 09/08 Q0994 NOSIG
EGCC 182350Z AUTO 20005KT 9999 SCT022 BKN028 09/08 Q0994 NOSIG  
EGCC 182320Z AUTO 20006KT 160V230 9999 BKN030/// BKN039/// //////TCU 09/08 Q0994 NOSIG  
EGCC 182250Z AUTO 20008KT 170V230 9999 BKN037 BKN045 09/08 Q0994 NOSIG  
EGCC 182220Z AUTO 20007KT 9999 SCT037 BKN047 09/08 Q0993 NOSIG  
EGCC 182150Z AUTO 19006KT 140V230 9999 BKN039 OVC045 10/08 Q0993 TEMPO SHRA 
EGCC 182120Z AUTO 19006KT 150V230 9999 -RA BKN015 BKN038 BKN045 10/08 Q0993 TEMPO SHRA  
EGCC 182050Z AUTO 18007KT 140V220 9999 -RA SCT019 SCT042 10/08 Q0993 TEMPO SHRA 
EGCC 182020Z AUTO 18007KT 130V230 9999 -RA SCT020 BKN047 10/08 Q0993 TEMPO SHRA 
EGCC 181950Z AUTO 17005KT 120V220 9999 -RA SCT027 BKN046 10/08 Q0993 TEMPO SHRA 
EGCC 181920Z AUTO 16005KT 100V230 9999 FEW026/// BKN036/// BKN047/// //////TCU 10/09 Q0993 TEMPO SHRA